Towner, North Dakota
Current Conditions -  °F | °C
As of 6:35 PM on Saturday 20 Dec 2014 (Local Time) from KRUG Reporting Station
Haze Haze  
Wind Chill: 17°   Ceiling: 100
Heat Index: 25°   Visibility: 0.75mi
Dew Point: 25°   Wind: 7mph
Humidity: 100%   Direction: 160°SSE
Pressure: 29.79"   Gusts: NA
Location:  48.35°N, 100.41°W
Report Text: KRUG 210035Z AUTO 16006KT 3/4SM BR OVC001 M04/M04 A2979 RMK AO2
Loading
Personal Weather Stations






























Interactive Weather Map New forecast layout! Learn more

10-Day Weather Forecast

Advertisements
Track Severe Weather on mobile